CheckWX is a tool to help pilots better visualize weather data.  It is not intended as a substitute for an official pre-flight weather briefing.

15:04:43 UTC

KIRS METAR
Kirsch Municipal Airport
Sturgis, Michigan, USA
Current

17 mins ago

KIRS 231448Z AUTO 26012G15KT 10SM BKN019 BKN025 OVC029 21/18 A2997 RMK AO2
Observed
May-23 @ 14:48 UTC
Wind
  • 260° at 12 KTS
  • Gusting to 15 KTS
Visibility
10 SM
Flight Rules
MVFR
Cloud Levels
  • Broken at 1,900' AGL
  • Broken at 2,500' AGL
  • Overcast at 2,900' AGL
Temperature
21°C / 70°F
Dewpoint
18°C / 64°F
Humidity
83%
Altimeter
29.97" Hg
Pressure
1014.92 hPa
Previous

39 mins ago

KIRS 231426Z AUTO 26009KT 10SM SCT010 BKN019 OVC031 21/18 A2996 RMK AO2
Observed
May-23 @ 14:26 UTC
Wind
  • 260° at 9 KTS
Visibility
10 SM
Flight Rules
MVFR
Cloud Levels
  • Scattered at 1,000' AGL
  • Broken at 1,900' AGL
  • Overcast at 3,100' AGL
Temperature
21°C / 70°F
Dewpoint
18°C / 64°F
Humidity
83%
Altimeter
29.96" Hg
Pressure
1014.52 hPa
Previous

56 mins ago

KIRS 231409Z AUTO 24010KT 10SM BKN008 OVC017 20/19 A2996 RMK AO2
Observed
May-23 @ 14:09 UTC
Wind
  • 240° at 10 KTS
Visibility
10 SM
Flight Rules
IFR
Cloud Levels
  • Broken at 800' AGL
  • Overcast at 1,700' AGL
Temperature
20°C / 68°F
Dewpoint
19°C / 66°F
Humidity
94%
Altimeter
29.96" Hg
Pressure
1014.52 hPa